Terminal Aerodrome Forecast
Issued by NWS

Home | Current Version | Previous Version | Text Only | Print | Product List | Glossary On
Versions: 1 2 3 4 5 6 7 8 9 10 11 12 13 14 15 16 17
000
FTUS43 KIND 121126
TAFLAF
TAF
KLAF 121126Z 1212/1312 32016G26KT P6SM BKN110
     FM121500 32016G26KT P6SM VCSH BKN120
     FM121700 31016G25KT P6SM VCSH SCT200
     FM122300 30012KT P6SM SCT250
     FM130800 VRB03KT P6SM SCT100
      AMD LTD TO CLD VIS AND WIND TIL 121400=

USA.gov is the U.S. government's official web portal to all federal, state and local government web resources and services.